Faro, Portugal

7:10 PM WEST on September 30, 2014 (GMT +0100)
Faro | Change Station
CLOSE
Current Station
Airport
Location: Faro,
Elevation: 26 ft
Nearby Weather Stations

Elev 26 ft 37.01 °N, 7.97 °W | Updated 40 minutes ago

Clear
Clear
77 °F
Feels Like 77 °F
N
8
Wind Variable Wind from WSW

Today
High -- | Low -- °F
--% Chance of Precip.
Yesterday
High -- | Low -- °F
Precip. -- in
7:26 AM 7:17 PM
Waxing Crescent, 38% visible
Pressure 30.06 in
Visibility -9999.0 miles
Clouds
Dew Point 63 °F
Humidity 61%
Rainfall 0.00 in
Snow Depth Not available.
UV Not available.
Pollen Not available.
Air Quality Not available.
Flu Activity Not available.
METAR LPFR 301730Z 25007KT 210V280 CAVOK 25/17 Q1018

More Conditions Fewer Conditions

Pressure 30.06 in
Visibility -9999.0 miles
Clouds
Dew Point 63 °F
Humidity 61%
Rainfall 0.00 in
Snow Depth Not available.
UV Not available.
Pollen Not available.
Air Quality Not available.
Flu Activity Not available.
METAR LPFR 301730Z 25007KT 210V280 CAVOK 25/17 Q1018

More Conditions Fewer Conditions

10-Day Weather Forecast

Almanac

Astronomy

Sep. 30, 2014 Rise Set
Actual Time 7:26 AM WEST 7:17 PM WEST
Civil Twilight 7:00 AM WEST 7:42 PM WEST
Nautical Twilight 6:30 AM WEST 8:12 PM WEST
Astronomical Twilight 5:59 AM WEST 8:43 PM WEST
Moon 1:15 PM WEST 11:40 PM WEST
Length of Visible Light 12h 42m
Length of Day
11h 50m
Tomorrow will be 2m 20s shorter.
Waxing Crescent, 38% of the Moon is Illuminated
Today
Waxing Crescent
Oct 1
First Quarter
Oct 8
Full
Oct 15
Last Quarter
Oct 23
New

Today's Extremes

Country Highs Country Lows

Community

WunderPhotos

Upload Photos

1,757,710 photos uploaded!

Nearby

Snow Depth

Not available.

Earthquake Activity

City Distance Mag. Time & Date
No recent earthquake activity has been reported nearby.
Minimum magnitude displayed is 2.5.

Coastal Water Temperatures

Place Temperature
No Stations Reporting

Nearby Weather Stations